createdAt,value
2022-10-04T00:00:11.415Z,20.60
2022-10-04T00:02:48.085Z,20.70
2022-10-04T00:05:20.093Z,20.70
2022-10-04T00:07:54.352Z,20.70
2022-10-04T00:10:27.754Z,20.70
2022-10-04T00:13:00.141Z,20.70
2022-10-04T00:15:32.073Z,20.60
2022-10-04T00:18:09.412Z,20.60
2022-10-04T00:21:00.625Z,20.60
2022-10-04T00:23:43.435Z,20.60
2022-10-04T00:26:31.293Z,20.50
2022-10-04T00:29:00.274Z,20.50
2022-10-04T00:31:29.847Z,20.50
2022-10-04T00:34:43.944Z,20.50
2022-10-04T00:37:16.123Z,20.50
2022-10-04T00:39:48.573Z,20.40
2022-10-04T00:42:46.812Z,20.40
2022-10-04T00:45:30.005Z,20.30
2022-10-04T00:48:32.882Z,20.30
2022-10-04T00:51:08.951Z,20.40
2022-10-04T00:53:53.179Z,20.50
2022-10-04T00:56:30.794Z,20.40
2022-10-04T00:59:13.937Z,20.40
2022-10-04T01:01:46.443Z,20.60
2022-10-04T01:04:29.232Z,20.60
2022-10-04T01:07:01.439Z,20.60
2022-10-04T01:09:32.437Z,20.50
2022-10-04T01:12:09.101Z,20.50
2022-10-04T01:14:49.034Z,20.50
2022-10-04T01:17:18.103Z,20.40
2022-10-04T01:19:53.434Z,20.50
2022-10-04T01:22:38.624Z,20.50
2022-10-04T01:25:07.949Z,20.50
2022-10-04T01:27:42.215Z,20.50
2022-10-04T01:30:14.559Z,20.40
2022-10-04T01:32:45.344Z,20.40
2022-10-04T01:35:17.158Z,20.30
2022-10-04T01:37:47.661Z,20.20
2022-10-04T01:40:17.118Z,20.10
2022-10-04T01:42:51.859Z,20.00
2022-10-04T01:45:29.555Z,20.10
2022-10-04T01:48:02.144Z,20.10
2022-10-04T01:50:35.415Z,20.10
2022-10-04T01:53:16.391Z,20.10
2022-10-04T01:55:48.988Z,20.00
2022-10-04T01:58:25.386Z,20.00
2022-10-04T02:01:01.515Z,19.90
2022-10-04T02:03:35.775Z,19.90
2022-10-04T02:06:08.693Z,19.90
2022-10-04T02:08:42.396Z,20.00
2022-10-04T02:11:11.498Z,19.90
2022-10-04T02:13:42.416Z,19.80
2022-10-04T02:16:16.907Z,19.80
2022-10-04T02:18:47.059Z,19.80
2022-10-04T02:21:17.139Z,19.70
2022-10-04T02:23:48.832Z,19.70
2022-10-04T02:26:17.785Z,19.70
2022-10-04T02:28:47.139Z,19.60
2022-10-04T02:31:33.442Z,19.60
2022-10-04T02:34:05.526Z,19.60
2022-10-04T02:36:35.972Z,19.70
2022-10-04T02:39:11.057Z,19.70
2022-10-04T02:41:44.622Z,19.60
2022-10-04T02:44:18.373Z,19.60
2022-10-04T02:46:54.078Z,19.70
2022-10-04T02:49:30.268Z,19.80
2022-10-04T02:52:04.985Z,19.80
2022-10-04T02:54:39.738Z,19.80
2022-10-04T02:57:17.883Z,19.80
2022-10-04T02:59:46.981Z,19.90
2022-10-04T03:02:29.475Z,19.90
2022-10-04T03:05:09.798Z,20.00
2022-10-04T03:07:40.786Z,20.10
2022-10-04T03:10:15.355Z,20.00
2022-10-04T03:12:44.752Z,20.00
2022-10-04T03:15:14.266Z,20.00
2022-10-04T03:17:44.912Z,20.00
2022-10-04T03:20:21.417Z,19.80
2022-10-04T03:22:56.899Z,19.90
2022-10-04T03:25:31.777Z,19.80
2022-10-04T03:28:03.518Z,19.80
2022-10-04T03:30:35.273Z,19.70
2022-10-04T03:33:04.696Z,19.80
2022-10-04T03:35:36.513Z,19.80
2022-10-04T03:38:13.739Z,19.80
2022-10-04T03:40:51.934Z,19.80
2022-10-04T03:43:24.683Z,19.80
2022-10-04T03:45:55.175Z,19.80
2022-10-04T03:48:37.188Z,19.70
2022-10-04T03:51:09.538Z,19.80
2022-10-04T03:53:43.530Z,19.80
2022-10-04T03:56:23.172Z,19.80
2022-10-04T03:58:52.899Z,19.80
2022-10-04T04:01:35.610Z,19.80
2022-10-04T04:04:13.647Z,19.80
2022-10-04T04:06:46.643Z,19.70
2022-10-04T04:09:23.198Z,19.70
2022-10-04T04:11:56.592Z,19.60
2022-10-04T04:14:28.820Z,19.60
2022-10-04T04:17:31.876Z,19.70
2022-10-04T04:20:07.628Z,19.70
2022-10-04T04:22:38.030Z,19.60
2022-10-04T04:25:12.939Z,19.60
2022-10-04T04:27:45.536Z,19.60
2022-10-04T04:30:18.932Z,19.70
2022-10-04T04:32:52.858Z,19.60
2022-10-04T04:35:26.930Z,19.60
2022-10-04T04:38:16.450Z,19.50
2022-10-04T04:40:46.259Z,19.60
2022-10-04T04:43:20.462Z,19.60
2022-10-04T04:46:08.505Z,19.60
2022-10-04T04:48:39.336Z,19.60
2022-10-04T04:51:10.381Z,19.60
2022-10-04T04:53:44.328Z,19.60
2022-10-04T04:56:17.467Z,19.60
2022-10-04T04:58:51.542Z,19.60
2022-10-04T05:01:26.607Z,19.60
2022-10-04T05:04:06.915Z,19.70
2022-10-04T05:06:37.730Z,19.70
2022-10-04T05:09:11.114Z,19.70
2022-10-04T05:11:41.429Z,19.70
2022-10-04T05:14:17.289Z,19.70
2022-10-04T05:16:51.385Z,19.70
2022-10-04T05:19:23.517Z,19.70
2022-10-04T05:21:55.344Z,19.60
2022-10-04T05:24:28.294Z,19.60
2022-10-04T05:27:03.594Z,19.60
2022-10-04T05:29:37.507Z,19.60
2022-10-04T05:32:16.781Z,19.60
2022-10-04T05:34:50.228Z,19.70
2022-10-04T05:37:43.512Z,19.70
2022-10-04T05:40:31.119Z,19.70
2022-10-04T05:43:00.209Z,19.70
2022-10-04T05:45:32.501Z,19.70
2022-10-04T05:48:08.084Z,19.70
2022-10-04T05:50:40.828Z,19.60
2022-10-04T05:53:22.880Z,19.70
2022-10-04T05:56:02.592Z,19.70
2022-10-04T05:58:55.088Z,19.80
2022-10-04T06:01:42.374Z,19.80
2022-10-04T06:04:28.662Z,19.90
2022-10-04T06:07:03.092Z,19.90
2022-10-04T06:09:55.556Z,20.00
2022-10-04T06:12:44.385Z,20.10
2022-10-04T06:15:45.384Z,20.10
2022-10-04T06:18:32.452Z,20.10
2022-10-04T06:21:23.698Z,20.10
2022-10-04T06:23:58.163Z,20.20
2022-10-04T06:26:35.068Z,20.20
2022-10-04T06:29:10.549Z,20.30
2022-10-04T06:32:11.845Z,20.30
2022-10-04T06:35:10.554Z,20.30
2022-10-04T06:38:11.631Z,20.40
2022-10-04T06:41:05.000Z,20.50
2022-10-04T06:43:45.604Z,20.60
2022-10-04T06:46:19.231Z,20.60
2022-10-04T06:49:00.432Z,20.70
2022-10-04T06:51:47.116Z,20.70
2022-10-04T06:54:32.591Z,20.80
2022-10-04T06:57:19.283Z,20.90
2022-10-04T07:00:20.731Z,20.80
2022-10-04T07:02:53.037Z,20.80
2022-10-04T07:05:31.643Z,20.90
2022-10-04T07:08:11.476Z,20.90
2022-10-04T07:10:51.823Z,21.00
2022-10-04T07:13:39.482Z,21.00
2022-10-04T07:16:19.494Z,21.10
2022-10-04T07:18:57.375Z,21.20
2022-10-04T07:21:29.070Z,21.30
2022-10-04T07:24:03.985Z,21.30
2022-10-04T07:26:39.639Z,21.30
2022-10-04T07:29:23.231Z,21.40
2022-10-04T07:32:08.361Z,21.40
2022-10-04T07:34:45.846Z,21.40
2022-10-04T07:37:15.909Z,21.40
2022-10-04T07:39:54.280Z,21.60
2022-10-04T07:42:29.642Z,21.50
2022-10-04T07:45:17.810Z,21.70
2022-10-04T07:47:47.428Z,21.60
2022-10-04T07:50:30.175Z,21.80
2022-10-04T07:53:09.351Z,21.80
2022-10-04T07:55:53.032Z,21.80
2022-10-04T07:58:34.999Z,21.90
2022-10-04T08:01:10.215Z,21.90
2022-10-04T08:03:51.157Z,21.90
2022-10-04T08:06:27.879Z,22.00
2022-10-04T08:09:19.799Z,22.10
2022-10-04T08:11:59.842Z,22.10
2022-10-04T08:14:39.711Z,22.20
2022-10-04T08:17:18.094Z,22.20
2022-10-04T08:19:59.129Z,22.20
2022-10-04T08:22:38.644Z,22.20
2022-10-04T08:25:19.783Z,22.30
2022-10-04T08:28:18.342Z,22.30
2022-10-04T08:31:21.942Z,22.40
2022-10-04T08:34:04.199Z,22.70
2022-10-04T08:36:47.689Z,22.60
2022-10-04T08:39:35.398Z,22.70
2022-10-04T08:42:32.278Z,22.80
2022-10-04T08:45:35.971Z,22.90
2022-10-04T08:48:46.673Z,22.90
2022-10-04T08:51:52.526Z,22.90
2022-10-04T08:54:53.465Z,22.90
2022-10-04T08:57:46.240Z,23.00
2022-10-04T09:00:20.187Z,23.10
2022-10-04T09:03:26.880Z,23.20
2022-10-04T09:06:08.201Z,23.20
2022-10-04T09:09:35.330Z,23.20
2022-10-04T09:12:22.565Z,23.30
2022-10-04T09:15:20.299Z,23.40
2022-10-04T09:17:56.139Z,23.20
2022-10-04T09:20:41.941Z,23.40
2022-10-04T09:23:38.322Z,23.50
2022-10-04T09:26:21.446Z,23.50
2022-10-04T09:29:36.707Z,23.50
2022-10-04T09:32:40.454Z,23.50
2022-10-04T09:35:45.733Z,23.70
2022-10-04T09:39:11.516Z,23.70
2022-10-04T09:42:15.638Z,23.60
2022-10-04T09:44:57.546Z,23.80
2022-10-04T09:47:41.200Z,23.80
2022-10-04T09:50:40.096Z,23.80
2022-10-04T09:53:40.453Z,23.70
2022-10-04T09:56:39.145Z,23.70
2022-10-04T09:59:41.764Z,23.70
2022-10-04T10:02:54.966Z,23.80
2022-10-04T10:05:32.270Z,23.60
2022-10-04T10:08:12.999Z,23.80
2022-10-04T10:11:10.371Z,23.90
2022-10-04T10:14:10.317Z,24.00
2022-10-04T10:17:00.398Z,24.00
2022-10-04T10:19:49.721Z,24.10
2022-10-04T10:22:42.724Z,24.20
2022-10-04T10:25:29.193Z,24.20
2022-10-04T10:28:08.721Z,24.30
2022-10-04T10:30:51.455Z,24.50
2022-10-04T10:33:48.525Z,24.40
2022-10-04T10:36:35.766Z,24.60
2022-10-04T10:39:30.483Z,24.80
2022-10-04T10:42:27.832Z,24.80
2022-10-04T10:45:21.325Z,24.50
2022-10-04T10:47:59.889Z,24.60
2022-10-04T10:51:02.849Z,24.60
2022-10-04T10:54:05.981Z,24.60
2022-10-04T10:57:01.352Z,24.70
2022-10-04T11:00:02.950Z,24.60
2022-10-04T11:03:12.109Z,24.60
2022-10-04T11:06:14.769Z,24.50
2022-10-04T11:09:22.557Z,24.80
2022-10-04T11:12:24.813Z,24.70
2022-10-04T11:15:47.979Z,24.80
2022-10-04T11:19:01.991Z,24.90
2022-10-04T11:22:07.689Z,24.80
2022-10-04T11:25:07.123Z,24.90
2022-10-04T11:27:49.689Z,24.80
2022-10-04T11:30:25.199Z,25.00
2022-10-04T11:33:41.008Z,24.90
2022-10-04T11:36:36.716Z,25.00
2022-10-04T11:39:36.259Z,25.00
2022-10-04T11:42:19.831Z,25.10
2022-10-04T11:45:17.831Z,25.20
2022-10-04T11:48:01.757Z,25.20
2022-10-04T11:50:40.323Z,25.10
2022-10-04T11:53:39.436Z,25.10
2022-10-04T11:56:35.388Z,25.20
2022-10-04T11:59:23.053Z,25.20
2022-10-04T12:02:11.677Z,25.10
2022-10-04T12:05:20.412Z,25.20
2022-10-04T12:08:06.274Z,25.30
2022-10-04T12:10:38.903Z,25.20
2022-10-04T12:13:38.280Z,25.40
2022-10-04T12:16:32.386Z,25.10
2022-10-04T12:19:58.035Z,25.20
2022-10-04T12:22:57.710Z,25.20
2022-10-04T12:25:54.378Z,25.30
2022-10-04T12:29:02.632Z,25.30
2022-10-04T12:31:36.262Z,25.50
2022-10-04T12:34:17.221Z,25.30
2022-10-04T12:37:05.949Z,25.20
2022-10-04T12:39:48.242Z,25.30
2022-10-04T12:42:32.368Z,25.30
2022-10-04T12:45:29.361Z,25.60
2022-10-04T12:48:17.802Z,25.70
2022-10-04T12:50:54.967Z,25.80
2022-10-04T12:53:35.670Z,25.80
2022-10-04T12:56:14.656Z,25.70
2022-10-04T12:59:00.243Z,25.80
2022-10-04T13:01:37.984Z,25.80
2022-10-04T13:04:22.555Z,25.90
2022-10-04T13:07:11.101Z,25.80
2022-10-04T13:10:12.105Z,25.80
2022-10-04T13:13:05.436Z,25.90
2022-10-04T13:18:38.391Z,25.80
2022-10-04T13:21:11.905Z,25.70
2022-10-04T13:23:56.826Z,25.50
2022-10-04T13:26:37.853Z,25.60
2022-10-04T13:29:18.307Z,25.70
2022-10-04T13:31:54.069Z,25.70
2022-10-04T13:34:32.777Z,25.30
2022-10-04T13:37:23.728Z,25.40
2022-10-04T13:40:21.598Z,25.40
2022-10-04T13:43:07.443Z,25.60
2022-10-04T13:45:45.566Z,25.40
2022-10-04T13:48:31.166Z,25.40
2022-10-04T13:51:29.003Z,25.40
2022-10-04T13:54:31.527Z,25.10
2022-10-04T13:57:15.409Z,25.30
2022-10-04T13:59:49.326Z,25.30
2022-10-04T14:02:50.012Z,25.40
2022-10-04T14:05:49.463Z,25.40
2022-10-04T14:08:45.754Z,25.30
2022-10-04T14:11:51.006Z,25.00
2022-10-04T14:14:49.655Z,25.00
2022-10-04T14:18:01.269Z,25.10
2022-10-04T14:21:16.692Z,25.20
2022-10-04T14:24:08.684Z,25.10
2022-10-04T14:27:03.568Z,25.20
2022-10-04T14:29:53.872Z,25.00
2022-10-04T14:33:14.557Z,25.00
2022-10-04T14:35:47.952Z,24.70
2022-10-04T14:38:48.992Z,24.70
2022-10-04T14:42:00.091Z,24.90
2022-10-04T14:45:12.954Z,25.40
2022-10-04T14:48:24.555Z,25.70
2022-10-04T14:51:11.786Z,26.10
2022-10-04T14:53:51.010Z,26.40
2022-10-04T14:56:51.295Z,26.70
2022-10-04T14:59:33.062Z,26.60
2022-10-04T15:02:36.726Z,26.10
2022-10-04T15:05:32.001Z,26.30
2022-10-04T15:08:25.807Z,26.30
2022-10-04T15:10:58.947Z,26.70
2022-10-04T15:13:35.665Z,26.50
2022-10-04T15:16:14.722Z,26.50
2022-10-04T15:18:56.001Z,26.60
2022-10-04T15:21:43.614Z,26.60
2022-10-04T15:24:28.103Z,26.50
2022-10-04T15:27:38.657Z,27.00
2022-10-04T15:30:21.322Z,26.70
2022-10-04T15:33:02.274Z,27.00
2022-10-04T15:35:40.001Z,26.80
2022-10-04T15:38:23.799Z,26.60
2022-10-04T15:41:04.081Z,26.00
2022-10-04T15:43:43.485Z,25.90
2022-10-04T15:46:36.188Z,26.10
2022-10-04T15:49:25.744Z,26.10
2022-10-04T15:52:15.198Z,26.10
2022-10-04T15:55:11.516Z,26.10
2022-10-04T15:58:13.885Z,25.60
2022-10-04T16:00:51.889Z,25.30
2022-10-04T16:03:33.013Z,24.70
2022-10-04T16:06:08.099Z,24.30
2022-10-04T16:09:06.096Z,24.20
2022-10-04T16:11:48.709Z,23.90
2022-10-04T16:14:50.748Z,23.80
2022-10-04T16:17:53.343Z,23.60
2022-10-04T16:20:56.666Z,23.50
2022-10-04T16:23:36.739Z,23.60
2022-10-04T16:26:10.952Z,23.40
2022-10-04T16:29:06.357Z,23.40
2022-10-04T16:32:03.422Z,23.30
2022-10-04T16:34:53.554Z,23.20
2022-10-04T16:37:36.594Z,23.30
2022-10-04T16:40:27.712Z,23.20
2022-10-04T16:43:03.943Z,23.20
2022-10-04T16:45:45.177Z,23.10
2022-10-04T16:48:29.513Z,23.00
2022-10-04T16:51:35.424Z,23.00
2022-10-04T16:54:28.267Z,23.00
2022-10-04T16:57:23.197Z,23.00
2022-10-04T16:59:56.425Z,22.90
2022-10-04T17:02:56.127Z,22.90
2022-10-04T17:05:50.254Z,22.80
2022-10-04T17:08:25.977Z,22.80
2022-10-04T17:11:18.722Z,22.70
2022-10-04T17:13:56.987Z,22.70
2022-10-04T17:16:36.009Z,22.80
2022-10-04T17:19:20.724Z,22.80
2022-10-04T17:22:07.056Z,22.70
2022-10-04T17:24:53.732Z,22.70
2022-10-04T17:27:46.418Z,22.60
2022-10-04T17:30:21.955Z,22.60
2022-10-04T17:33:12.802Z,22.70
2022-10-04T17:36:01.928Z,22.60
2022-10-04T17:38:42.346Z,22.60
2022-10-04T17:41:20.892Z,22.70
2022-10-04T17:44:17.759Z,22.60
2022-10-04T17:46:52.019Z,22.60
2022-10-04T17:49:47.930Z,22.50
2022-10-04T17:52:39.117Z,22.40
2022-10-04T17:55:18.711Z,22.40
2022-10-04T17:57:51.948Z,22.40
2022-10-04T18:00:24.018Z,22.40
2022-10-04T18:03:16.547Z,22.40
2022-10-04T18:05:51.218Z,22.30
2022-10-04T18:08:27.472Z,22.30
2022-10-04T18:11:00.277Z,22.30
2022-10-04T18:13:34.479Z,22.30
2022-10-04T18:16:11.417Z,22.30
2022-10-04T18:18:42.080Z,22.20
2022-10-04T18:21:27.546Z,22.20
2022-10-04T18:23:59.466Z,22.10
2022-10-04T18:26:31.694Z,22.10
2022-10-04T18:29:02.155Z,22.10
2022-10-04T18:31:39.856Z,22.20
2022-10-04T18:34:20.645Z,22.30
2022-10-04T18:37:06.878Z,22.10
2022-10-04T18:39:50.560Z,22.10
2022-10-04T18:42:27.396Z,22.20
2022-10-04T18:45:00.158Z,22.10
2022-10-04T18:47:38.295Z,22.10
2022-10-04T18:50:17.626Z,22.00
2022-10-04T18:52:59.695Z,22.10
2022-10-04T18:55:39.007Z,22.00
2022-10-04T18:58:42.011Z,21.90
2022-10-04T19:01:39.941Z,21.90
2022-10-04T19:04:14.301Z,22.00
2022-10-04T19:06:48.278Z,21.90
2022-10-04T19:09:28.281Z,22.00
2022-10-04T19:12:02.040Z,22.10
2022-10-04T19:14:41.279Z,22.10
2022-10-04T19:17:18.672Z,22.10
2022-10-04T19:19:56.444Z,21.90
2022-10-04T19:22:39.121Z,21.80
2022-10-04T19:25:33.066Z,21.80
2022-10-04T19:28:08.294Z,21.90
2022-10-04T19:31:00.780Z,22.00
2022-10-04T19:33:39.262Z,21.80
2022-10-04T19:36:25.194Z,21.80
2022-10-04T19:39:09.059Z,21.70
2022-10-04T19:41:53.002Z,21.80
2022-10-04T19:44:36.756Z,21.80
2022-10-04T19:47:22.867Z,21.90
2022-10-04T19:49:59.306Z,21.90
2022-10-04T19:52:38.412Z,21.90
2022-10-04T19:55:19.726Z,21.90
2022-10-04T19:57:53.726Z,21.90
2022-10-04T20:00:22.967Z,21.70
2022-10-04T20:02:51.922Z,21.80
2022-10-04T20:05:25.295Z,21.80
2022-10-04T20:08:01.688Z,21.70
2022-10-04T20:10:34.495Z,21.70
2022-10-04T20:13:17.705Z,21.80
2022-10-04T20:15:49.757Z,21.70
2022-10-04T20:18:58.801Z,21.70
2022-10-04T20:21:32.561Z,21.80
2022-10-04T20:24:01.835Z,21.70
2022-10-04T20:26:56.566Z,21.70
2022-10-04T20:30:07.289Z,21.70
2022-10-04T20:33:00.259Z,21.70
2022-10-04T20:36:17.693Z,21.60
2022-10-04T20:39:00.371Z,21.70
2022-10-04T20:42:22.733Z,21.70
2022-10-04T20:44:57.171Z,21.60
2022-10-04T20:47:42.878Z,21.60
2022-10-04T20:50:33.006Z,21.50
2022-10-04T20:53:04.994Z,21.40
2022-10-04T20:55:36.447Z,21.40
2022-10-04T20:58:23.695Z,21.50
2022-10-04T21:00:54.851Z,21.30
2022-10-04T21:03:24.774Z,21.40
2022-10-04T21:06:09.582Z,21.30
2022-10-04T21:08:39.267Z,21.30
2022-10-04T21:11:20.939Z,21.40
2022-10-04T21:13:55.679Z,21.40
2022-10-04T21:16:46.772Z,21.30
2022-10-04T21:19:46.741Z,21.20
2022-10-04T21:22:49.759Z,21.30
2022-10-04T21:25:33.134Z,21.20
2022-10-04T21:28:36.332Z,21.20
2022-10-04T21:31:05.624Z,21.20
2022-10-04T21:33:35.215Z,21.10
2022-10-04T21:36:05.449Z,21.00
2022-10-04T21:38:36.049Z,21.20
2022-10-04T21:41:05.191Z,21.10
2022-10-04T21:43:34.061Z,21.20
2022-10-04T21:46:03.237Z,21.20
2022-10-04T21:48:32.068Z,21.00
2022-10-04T21:51:01.141Z,20.90
2022-10-04T21:53:29.981Z,20.70
2022-10-04T21:56:00.243Z,20.60
2022-10-04T21:58:29.192Z,20.60
2022-10-04T22:00:58.187Z,20.60
2022-10-04T22:03:27.346Z,20.60
2022-10-04T22:05:56.351Z,20.60
2022-10-04T22:08:25.187Z,20.60
2022-10-04T22:10:57.620Z,20.60
2022-10-04T22:13:28.492Z,20.60
2022-10-04T22:15:57.424Z,20.60
2022-10-04T22:18:26.293Z,20.40
2022-10-04T22:20:55.216Z,20.50
2022-10-04T22:23:26.216Z,20.50
2022-10-04T22:25:56.285Z,20.60
2022-10-04T22:28:29.065Z,20.60
2022-10-04T22:30:58.555Z,20.30
2022-10-04T22:33:35.656Z,20.40
2022-10-04T22:36:15.308Z,20.60
2022-10-04T22:38:46.298Z,20.70
2022-10-04T22:41:18.572Z,20.50
2022-10-04T22:43:50.828Z,20.40
2022-10-04T22:46:21.587Z,20.40
2022-10-04T22:48:51.226Z,20.30
2022-10-04T22:51:20.961Z,20.30
2022-10-04T22:53:49.984Z,20.30
2022-10-04T22:56:18.875Z,20.30
2022-10-04T22:58:49.195Z,20.30
2022-10-04T23:01:19.952Z,20.30
2022-10-04T23:03:50.577Z,20.30
2022-10-04T23:06:19.541Z,20.30
2022-10-04T23:08:48.527Z,20.30
2022-10-04T23:11:17.306Z,20.30
2022-10-04T23:13:46.937Z,20.30
2022-10-04T23:16:20.726Z,20.30
2022-10-04T23:18:49.929Z,20.30
2022-10-04T23:21:24.996Z,20.30
2022-10-04T23:23:54.882Z,20.30
2022-10-04T23:26:25.935Z,20.40
2022-10-04T23:28:54.974Z,20.30
2022-10-04T23:31:27.539Z,20.30
2022-10-04T23:33:58.752Z,20.30
2022-10-04T23:36:27.706Z,20.40
2022-10-04T23:39:00.505Z,20.30
2022-10-04T23:41:29.767Z,20.20
2022-10-04T23:43:58.582Z,20.20
2022-10-04T23:46:32.209Z,20.10
2022-10-04T23:49:01.101Z,20.00
2022-10-04T23:51:30.430Z,20.00
2022-10-04T23:53:59.385Z,20.00
2022-10-04T23:56:31.249Z,20.20
2022-10-04T23:59:00.638Z,20.30
